Observation data for Plains on 10/20/2020      Previous  Date       Current Mesonet Observations  Soil Data  Daily Summary Page  Observations in Plain Language
KPPS 200500Z 13012KT 13/08 A3001 RMK A01 T01270082  RH  076%=      5-min Rain = 0
KPPS 200505Z 13011KT 13/09 A3001 RMK A01 T01310085  RH  076%=      5-min Rain = 0
KPPS 200510Z 13010KT 13/09 A3001 RMK A01 T01300085  RH  076%=      5-min Rain = 0
KPPS 200515Z 13010KT 13/08 A3001 RMK A01 T01280083  RH  076%=      5-min Rain = 0
KPPS 200520Z 13008KT 12/08 A3001 RMK A01 T01240081  RH  077%=      5-min Rain = 0
KPPS 200525Z 13006KT 12/08 A3001 RMK A01 T01210080  RH  078%=      5-min Rain = 0
KPPS 200530Z 13006KT 12/08 A3001 RMK A01 T01190079  RH  079%=      5-min Rain = 0
KPPS 200535Z 13007KT 12/08 A3001 RMK A01 T01180080  RH  080%=      5-min Rain = 0
KPPS 200540Z 12006KT 12/08 A3001 RMK A01 T01160078  RH  080%=      5-min Rain = 0
KPPS 200545Z 13006KT 11/08 A3001 RMK A01 T01130077  RH  080%=      5-min Rain = 0
KPPS 200550Z 13006KT 11/08 A3001 RMK A01 T01120076  RH  081%=      5-min Rain = 0
KPPS 200555Z 14006KT 11/08 A3001 RMK A01 T01110075  RH  081%=      5-min Rain = 0
KPPS 200600Z 13006KT 11/07 A3001 RMK A01 T01090074  RH  081%=      5-min Rain = 0
KPPS 200605Z 13006KT 11/07 A3001 RMK A01 T01080074  RH  082%=      5-min Rain = 0
KPPS 200610Z 13006KT 11/07 A3001 RMK A01 T01060073  RH  082%=      5-min Rain = 0
KPPS 200615Z 13005KT 11/07 A3001 RMK A01 T01050073  RH  083%=      5-min Rain = 0
KPPS 200620Z 14005KT 10/07 A3001 RMK A01 T01040072  RH  083%=      5-min Rain = 0
KPPS 200625Z 14005KT 10/07 A3001 RMK A01 T01020071  RH  083%=      5-min Rain = 0
KPPS 200630Z 14004KT 10/07 A3001 RMK A01 T01000070  RH  084%=      5-min Rain = 0
KPPS 200635Z 13003KT 10/07 A3001 RMK A01 T01000071  RH  084%=      5-min Rain = 0
KPPS 200640Z 12003KT 10/07 A3001 RMK A01 T01000071  RH  084%=      5-min Rain = 0
KPPS 200645Z 12003KT 10/07 A3001 RMK A01 T01020073  RH  085%=      5-min Rain = 0
KPPS 200650Z 12003KT 10/07 A3001 RMK A01 T01020073  RH  085%=      5-min Rain = 0
KPPS 200655Z 11004KT 10/07 A3001 RMK A01 T01020074  RH  085%=      5-min Rain = 0
KPPS 200700Z 11004KT 10/07 A3001 RMK A01 T01000072  RH  085%=      5-min Rain = 0
KPPS 200705Z 11004KT 10/07 A3001 RMK A01 T00990071  RH  085%=      5-min Rain = 0
KPPS 200710Z 11003KT 10/07 A3001 RMK A01 T00980072  RH  086%=      5-min Rain = 0
KPPS 200715Z 11004KT 10/07 A30 RMK A01 T00970070  RH  086%=      5-min Rain = 0
KPPS 200720Z 10004KT 09/07 A30 RMK A01 T00930067  RH  086%=      5-min Rain = 0
KPPS 200725Z 11005KT 09/07 A30 RMK A01 T00900066  RH  087%=      5-min Rain = 0
KPPS 200730Z 11004KT 09/07 A30 RMK A01 T00940073  RH  089%=      5-min Rain = 0
KPPS 200735Z 11004KT 10/07 A30 RMK A01 T00970074  RH  088%=      5-min Rain = 0
KPPS 200740Z 11004KT 10/07 A30 RMK A01 T00970074  RH  088%=      5-min Rain = 0
KPPS 200745Z 11005KT 10/08 A30 RMK A01 T00980075  RH  088%=      5-min Rain = 0
KPPS 200750Z 11005KT 10/08 A30 RMK A01 T00970075  RH  088%=      5-min Rain = 0
KPPS 200755Z 11004KT 10/08 A30 RMK A01 T00980076  RH  089%=      5-min Rain = 0
KPPS 200800Z 11005KT 10/08 A30 RMK A01 T00970075  RH  089%=      5-min Rain = 0
KPPS 200805Z 12005KT 10/08 A30 RMK A01 T00960075  RH  089%=      5-min Rain = 0
KPPS 200810Z 13005KT 09/07 A30 RMK A01 T00930072  RH  089%=      5-min Rain = 0
KPPS 200815Z 14005KT 09/07 A30 RMK A01 T00930072  RH  089%=      5-min Rain = 0
KPPS 200820Z 14005KT 09/07 A30 RMK A01 T00900068  RH  089%=      5-min Rain = 0
KPPS 200825Z 14006KT 09/07 A30 RMK A01 T00900070  RH  090%=      5-min Rain = 0
KPPS 200830Z 15005KT 09/07 A30 RMK A01 T00910072  RH  090%=      5-min Rain = 0
KPPS 200835Z 15005KT 09/07 A30 RMK A01 T00920072  RH  090%=      5-min Rain = 0
KPPS 200840Z 13004KT 09/07 A30 RMK A01 T00890069  RH  089%=      5-min Rain = 0
KPPS 200845Z 13005KT 09/07 A30 RMK A01 T00890070  RH  090%=      5-min Rain = 0
KPPS 200850Z 12004KT 09/07 A30 RMK A01 T00890070  RH  090%=      5-min Rain = 0
KPPS 200855Z 12005KT 09/07 A30 RMK A01 T00900071  RH  090%=      5-min Rain = 0
KPPS 200900Z 11005KT 09/07 A30 RMK A01 T00900072  RH  091%=      5-min Rain = 0
KPPS 200905Z 11005KT 09/07 A30 RMK A01 T00910074  RH  092%=      5-min Rain = 0
KPPS 200910Z 12005KT 09/08 A30 RMK A01 T00920076  RH  092%=      5-min Rain = 0
KPPS 200915Z 12004KT 09/07 A30 RMK A01 T00890072  RH  091%=      5-min Rain = 0
KPPS 200920Z 12005KT 09/07 A2999 RMK A01 T00870070  RH  091%=      5-min Rain = 0
KPPS 200925Z 11004KT 09/07 A2999 RMK A01 T00860071  RH  092%=      5-min Rain = 0
KPPS 200930Z 10004KT 09/07 A2999 RMK A01 T00880073  RH  093%=      5-min Rain = 0
KPPS 200935Z 09005KT 09/07 A2999 RMK A01 T00860071  RH  093%=      5-min Rain = 0
KPPS 200940Z 10005KT 09/07 A2999 RMK A01 T00850071  RH  093%=      5-min Rain = 0
KPPS 200945Z 11004KT 08/07 A2999 RMK A01 T00830069  RH  094%=      5-min Rain = 0
KPPS 200950Z 11004KT 09/07 A2999 RMK A01 T00850072  RH  094%=      5-min Rain = 0
KPPS 200955Z 11004KT 09/07 A2999 RMK A01 T00860074  RH  095%=      5-min Rain = 0
KPPS 201000Z 09004KT 09/07 A2999 RMK A01 T00850073  RH  094%=      5-min Rain = 0
KPPS 201005Z 08004KT 08/07 A2999 RMK A01 T00830070  RH  094%=      5-min Rain = 0
KPPS 201010Z 09004KT 08/07 A2999 RMK A01 T00810069  RH  095%=      5-min Rain = 0
KPPS 201015Z 08005KT 08/07 A2999 RMK A01 T00790068  RH  095%=      5-min Rain = 0
KPPS 201020Z 07005KT 08/07 A2999 RMK A01 T00780068  RH  095%=      5-min Rain = 0
KPPS 201025Z 08005KT 08/07 A2999 RMK A01 T00790069  RH  096%=      5-min Rain = 0
KPPS 201030Z 09005KT 08/07 A2999 RMK A01 T00770067  RH  096%=      5-min Rain = 0
KPPS 201035Z 09004KT 08/07 A2999 RMK A01 T00760067  RH  096%=      5-min Rain = 0
KPPS 201040Z 07005KT 08/07 A2999 RMK A01 T00750065  RH  096%=      5-min Rain = 0
KPPS 201045Z 07006KT 08/07 A2999 RMK A01 T00770069  RH  097%=      5-min Rain = 0
KPPS 201050Z 08006KT 07/07 A2999 RMK A01 T00740065  RH  096%=      5-min Rain = 0
KPPS 201055Z 09007KT 08/07 A2999 RMK A01 T00750066  RH  097%=      5-min Rain = 0
KPPS 201100Z 09006KT 08/07 A2999 RMK A01 T00750068  RH  097%=      5-min Rain = 0
KPPS 201105Z 09005KT 07/07 A2999 RMK A01 T00740065  RH  097%=      5-min Rain = 0
KPPS 201110Z 09006KT 07/07 A2999 RMK A01 T00740066  RH  097%=      5-min Rain = 0
KPPS 201115Z 10006KT 08/07 A2999 RMK A01 T00780070  RH  098%=      5-min Rain = 0
KPPS 201120Z 10006KT 08/08 A2999 RMK A01 T00830077  RH  098%=      5-min Rain = 0
KPPS 201125Z 09006KT 08/07 A2999 RMK A01 T00810074  RH  098%=      5-min Rain = 0
KPPS 201130Z 08006KT 08/07 A2999 RMK A01 T00790072  RH  097%=      5-min Rain = 0
KPPS 201135Z 09005KT 07/07 A2999 RMK A01 T00740066  RH  097%=      5-min Rain = 0
KPPS 201140Z 09005KT 07/06 A2999 RMK A01 T00710064  RH  097%=      5-min Rain = 0
KPPS 201145Z 07005KT 07/06 A2999 RMK A01 T00700063  RH  098%=      5-min Rain = 0
KPPS 201150Z 07005KT 07/07 A2999 RMK A01 T00730066  RH  098%=      5-min Rain = 0
KPPS 201155Z 08006KT 07/06 A2999 RMK A01 T00710064  RH  098%=      5-min Rain = 0
KPPS 201200Z 09006KT 07/06 A2999 RMK A01 T00690063  RH  098%=      5-min Rain = 0
KPPS 201205Z 08006KT 07/06 A2999 RMK A01 T00680062  RH  098%=      5-min Rain = 0
KPPS 201210Z 08006KT 07/06 A30 RMK A01 T00670061  RH  098%=      5-min Rain = 0
KPPS 201215Z 08005KT 07/06 A30 RMK A01 T00650059  RH  098%=      5-min Rain = 0
KPPS 201220Z 09006KT 06/06 A30 RMK A01 T00640058  RH  098%=      5-min Rain = 0
KPPS 201225Z 08005KT 07/06 A30 RMK A01 T00650060  RH  099%=      5-min Rain = 0
KPPS 201230Z 08005KT 06/06 A2999 RMK A01 T00640059  RH  099%=      5-min Rain = 0
KPPS 201235Z 08006KT 06/06 A30 RMK A01 T00630058  RH  099%=      5-min Rain = 0
KPPS 201240Z 08005KT 06/06 A30 RMK A01 T00620057  RH  099%=      5-min Rain = 0
KPPS 201245Z 08005KT 06/06 A2999 RMK A01 T00610056  RH  099%=      5-min Rain = 0
KPPS 201250Z 09006KT 06/06 A2999 RMK A01 T00610057  RH  099%=      5-min Rain = 0
KPPS 201255Z 09005KT 06/06 A2999 RMK A01 T00630059  RH  099%=      5-min Rain = 0
KPPS 201300Z 09006KT 06/06 A2999 RMK A01 T00620058  RH  099%=      5-min Rain = 0
KPPS 201305Z 10006KT 07/06 A2999 RMK A01 T00650061  RH  100%=      5-min Rain = 0
KPPS 201310Z 10006KT 07/07 A30 RMK A01 T00690065  RH  100%=      5-min Rain = 0
KPPS 201315Z 10006KT 07/07 A30 RMK A01 T00710068  RH  100%=      5-min Rain = 0
KPPS 201320Z 11005KT 07/07 A30 RMK A01 T00720068  RH  100%=      5-min Rain = 0
KPPS 201325Z 11005KT 07/07 A30 RMK A01 T00720068  RH  100%=      5-min Rain = 0
KPPS 201330Z 11005KT 07/07 A30 RMK A01 T00720068  RH  100%=      5-min Rain = 0
KPPS 201335Z 11005KT 07/07 A30 RMK A01 T00740070  RH  100%=      5-min Rain = 0
KPPS 201340Z 12004KT 08/07 A30 RMK A01 T00750072  RH  100%=      5-min Rain = 0
KPPS 201345Z 12004KT 08/07 A30 RMK A01 T00770074  RH  100%=      5-min Rain = 0
KPPS 201350Z 13005KT 08/08 A30 RMK A01 T00820078  RH  100%=      5-min Rain = 0
KPPS 201355Z 13006KT 08/08 A30 RMK A01 T00840080  RH  100%=      5-min Rain = 0
KPPS 201400Z 14006KT 09/08 A30 RMK A01 T00850081  RH  100%=      5-min Rain = 0
KPPS 201405Z 14006KT 09/08 A30 RMK A01 T00860082  RH  100%=      5-min Rain = 0
KPPS 201410Z 14006KT 09/08 A30 RMK A01 T00870083  RH  100%=      5-min Rain = 0
KPPS 201415Z 14006KT 09/08 A3001 RMK A01 T00870083  RH  100%=      5-min Rain = 0
KPPS 201420Z 14006KT 09/08 A3001 RMK A01 T00890084  RH  100%=      5-min Rain = 0
KPPS 201425Z 14007KT 09/09 A3001 RMK A01 T00890085  RH  100%=      5-min Rain = 0
KPPS 201430Z 14006KT 09/09 A3001 RMK A01 T00900085  RH  100%=      5-min Rain = 0
KPPS 201435Z 14006KT 09/09 A3002 RMK A01 T00900086  RH  100%=      5-min Rain = 0
KPPS 201440Z 14005KT 09/09 A3002 RMK A01 T00920088  RH  100%=      5-min Rain = 0
KPPS 201445Z 15005KT 09/09 A3002 RMK A01 T00930089  RH  100%=      5-min Rain = 0
KPPS 201450Z 15005KT 10/09 A3002 RMK A01 T00950091  RH  100%=      5-min Rain = 0
KPPS 201455Z 15004KT 10/09 A3002 RMK A01 T00970093  RH  100%=      5-min Rain = 0
KPPS 201500Z 15005KT 10/10 A3003 RMK A01 T01010096  RH  100%=      5-min Rain = 0
KPPS 201505Z 16005KT 10/10 A3002 RMK A01 T01030098  RH  100%=      5-min Rain = 0
KPPS 201510Z 16005KT 10/10 A3002 RMK A01 T01040100  RH  100%=      5-min Rain = 0
KPPS 201515Z 16006KT 11/10 A3003 RMK A01 T01070102  RH  100%=      5-min Rain = 0
KPPS 201520Z 16006KT 11/10 A3003 RMK A01 T01080103  RH  100%=      5-min Rain = 0
KPPS 201525Z 16006KT 11/11 A3003 RMK A01 T01120106  RH  099%=      5-min Rain = 0
KPPS 201530Z 16006KT 12/11 A3003 RMK A01 T01160108  RH  098%=      5-min Rain = 0
KPPS 201535Z 16006KT 12/11 A3003 RMK A01 T01240110  RH  094%=      5-min Rain = 0
KPPS 201540Z 14007KT 13/11 A3003 RMK A01 T01280106  RH  089%=      5-min Rain = 0
KPPS 201545Z 15007KT 13/11 A3003 RMK A01 T01260105  RH  089%=      5-min Rain = 0
KPPS 201550Z 15008KT 13/11 A3003 RMK A01 T01290106  RH  088%=      5-min Rain = 0
KPPS 201555Z 15007KT 14/11 A3003 RMK A01 T01360108  RH  086%=      5-min Rain = 0
KPPS 201600Z 16006KT 14/11 A3003 RMK A01 T01390106  RH  083%=      5-min Rain = 0
KPPS 201605Z 17005KT 15/11 A3003 RMK A01 T01460109  RH  081%=      5-min Rain = 0
KPPS 201610Z 19003KT 15/11 A3003 RMK A01 T01530110  RH  078%=      5-min Rain = 0
KPPS 201615Z 17003KT 16/11 A3003 RMK A01 T01570111  RH  076%=      5-min Rain = 0
KPPS 201620Z 19005KT 16/11 A3003 RMK A01 T01640113  RH  074%=      5-min Rain = 0
KPPS 201625Z 17005KT 17/11 A3003 RMK A01 T01700114  RH  072%=      5-min Rain = 0
KPPS 201630Z 18006KT 18/12 A3002 RMK A01 T01760117  RH  071%=      5-min Rain = 0
KPPS 201635Z 18008KT 18/12 A3002 RMK A01 T01790118  RH  070%=      5-min Rain = 0
KPPS 201640Z 18008KT 18/12 A3002 RMK A01 T01830120  RH  069%=      5-min Rain = 0
KPPS 201645Z 18008KT 19/12 A3002 RMK A01 T01880122  RH  068%=      5-min Rain = 0
KPPS 201650Z 19007G12KT 19/12 A3002 RMK A01 T01880122  RH  068%=      5-min Rain = 0
KPPS 201655Z 17006KT 19/12 A3002 RMK A01 T01920121  RH  066%=      5-min Rain = 0
KPPS 201700Z 18006KT 20/12 A3002 RMK A01 T01950121  RH  065%=      5-min Rain = 0
KPPS 201705Z 18008KT 20/12 A3002 RMK A01 T01980122  RH  064%=      5-min Rain = 0
KPPS 201710Z 18008KT 20/12 A3001 RMK A01 T02030124  RH  063%=      5-min Rain = 0
KPPS 201715Z 18007KT 21/12 A3001 RMK A01 T02050124  RH  062%=      5-min Rain = 0
KPPS 201720Z 17007KT 21/12 A3001 RMK A01 T02080124  RH  061%=      5-min Rain = 0
KPPS 201725Z 19007KT 21/13 A3001 RMK A01 T02110125  RH  060%=      5-min Rain = 0
KPPS 201730Z 18006KT 21/12 A3001 RMK A01 T02100124  RH  060%=      5-min Rain = 0
KPPS 201735Z 18007KT 21/13 A3001 RMK A01 T02130125  RH  059%=      5-min Rain = 0
KPPS 201740Z 19007KT 21/13 A3001 RMK A01 T02140125  RH  059%=      5-min Rain = 0
KPPS 201745Z 19005KT 22/13 A3001 RMK A01 T02160126  RH  059%=      5-min Rain = 0
KPPS 201750Z 19007KT 22/13 A30 RMK A01 T02220125  RH  056%=      5-min Rain = 0
KPPS 201755Z 19007KT 22/12 A30 RMK A01 T02230124  RH  056%=      5-min Rain = 0
KPPS 201800Z 20008KT 22/13 A30 RMK A01 T02240125  RH  055%=      5-min Rain = 0
KPPS 201805Z 18006KT 23/13 A30 RMK A01 T02290125  RH  054%=      5-min Rain = 0
KPPS 201810Z 18006KT 23/12 A30 RMK A01 T02320124  RH  053%=      5-min Rain = 0
KPPS 201815Z 17007KT 23/12 A30 RMK A01 T02330124  RH  052%=      5-min Rain = 0
KPPS 201820Z 20006KT 23/12 A2999 RMK A01 T02340122  RH  052%=      5-min Rain = 0
KPPS 201825Z 18008KT 24/12 A2999 RMK A01 T02360121  RH  050%=      5-min Rain = 0
KPPS 201830Z 19007KT 24/12 A2999 RMK A01 T02390119  RH  049%=      5-min Rain = 0
KPPS 201835Z 18007KT 25/12 A2999 RMK A01 T02450117  RH  046%=      5-min Rain = 0
KPPS 201840Z 17007G12KT 25/12 A2999 RMK A01 T02480120  RH  046%=      5-min Rain = 0
KPPS 201845Z 17007G12KT 25/12 A2999 RMK A01 T02500116  RH  045%=      5-min Rain = 0
KPPS 201850Z 20008KT 25/12 A2998 RMK A01 T02530118  RH  044%=      5-min Rain = 0
KPPS 201855Z 18007KT 25/12 A2998 RMK A01 T02540119  RH  045%=      5-min Rain = 0
KPPS 201900Z 19007KT 26/12 A2998 RMK A01 T02600116  RH  042%=      5-min Rain = 0
KPPS 201905Z 17008KT 26/12 A2998 RMK A01 T02610117  RH  042%=      5-min Rain = 0
KPPS 201910Z 18008KT 27/11 A2997 RMK A01 T02650112  RH  040%=      5-min Rain = 0
KPPS 201915Z 20007G13KT 26/11 A2997 RMK A01 T02630111  RH  040%=      5-min Rain = 0
KPPS 201920Z 18007KT 26/11 A2997 RMK A01 T02630109  RH  039%=      5-min Rain = 0
KPPS 201925Z 19006KT 27/11 A2997 RMK A01 T02660107  RH  038%=      5-min Rain = 0
KPPS 201930Z 19007G12KT 27/10 A2996 RMK A01 T02660104  RH  037%=      5-min Rain = 0
KPPS 201935Z 20007G13KT 27/10 A2996 RMK A01 T02690104  RH  037%=      5-min Rain = 0
KPPS 201940Z 18008G13KT 28/10 A2996 RMK A01 T02750101  RH  035%=      5-min Rain = 0
KPPS 201945Z 18008G13KT 28/11 A2995 RMK A01 T02750106  RH  036%=      5-min Rain = 0
KPPS 201950Z 17008KT 28/11 A2995 RMK A01 T02780109  RH  036%=      5-min Rain = 0
KPPS 201955Z 19006KT 28/11 A2995 RMK A01 T02750108  RH  036%=      5-min Rain = 0
KPPS 202000Z 18010KT 28/11 A2994 RMK A01 T02780105  RH  035%=      5-min Rain = 0
KPPS 202005Z 18008G14KT 28/11 A2994 RMK A01 T02810107  RH  035%=      5-min Rain = 0
KPPS 202010Z 18007G12KT 28/11 A2994 RMK A01 T02830107  RH  035%=      5-min Rain = 0
KPPS 202015Z 18008KT 29/10 A2993 RMK A01 T02880097  RH  031%=      5-min Rain = 0
KPPS 202020Z 19008G13KT 29/09 A2993 RMK A01 T02920089  RH  029%=      5-min Rain = 0
KPPS 202025Z 19008KT 29/10 A2993 RMK A01 T02890096  RH  031%=      5-min Rain = 0
KPPS 202030Z 19009G15KT 29/09 A2993 RMK A01 T02920091  RH  030%=      5-min Rain = 0
KPPS 202035Z 20007G12KT 29/09 A2993 RMK A01 T02910087  RH  029%=      5-min Rain = 0
KPPS 202040Z 17010G15KT 29/09 A2993 RMK A01 T02910085  RH  028%=      5-min Rain = 0
KPPS 202045Z 17007KT 29/09 A2993 RMK A01 T02940087  RH  028%=      5-min Rain = 0
KPPS 202050Z 17009KT 30/08 A2992 RMK A01 T02960082  RH  027%=      5-min Rain = 0
KPPS 202055Z 18007KT 29/08 A2992 RMK A01 T02940080  RH  027%=      5-min Rain = 0
KPPS 202100Z 18007G14KT 30/08 A2992 RMK A01 T02960083  RH  027%=      5-min Rain = 0
KPPS 202105Z 18010G15KT 30/08 A2992 RMK A01 T03000077  RH  025%=      5-min Rain = 0
KPPS 202110Z 18007KT 30/08 A2992 RMK A01 T02980080  RH  026%=      5-min Rain = 0
KPPS 202115Z 17010G16KT 30/06 A2992 RMK A01 T03020059  RH  022%=      5-min Rain = 0
KPPS 202120Z 18008KT 30/05 A2992 RMK A01 T03040054  RH  021%=      5-min Rain = 0
KPPS 202125Z 20007KT 30/05 A2991 RMK A01 T03020048  RH  021%=      5-min Rain = 0
KPPS 202130Z 19008KT 30/05 A2991 RMK A01 T03040045  RH  020%=      5-min Rain = 0
KPPS 202135Z 16008KT 31/06 A2991 RMK A01 T03060062  RH  022%=      5-min Rain = 0
KPPS 202140Z 18007KT 31/05 A2991 RMK A01 T03050053  RH  021%=      5-min Rain = 0
KPPS 202145Z 20008KT 31/03 A2991 RMK A01 T03050034  RH  018%=      5-min Rain = 0
KPPS 202150Z 20010KT 31/02 A2991 RMK A01 T03070023  RH  017%=      5-min Rain = 0
KPPS 202155Z 19009G14KT 31/03 A2991 RMK A01 T03070028  RH  017%=      5-min Rain = 0
KPPS 202200Z 19008KT 31/02 A2991 RMK A01 T03080018  RH  016%=      5-min Rain = 0
KPPS 202205Z 19008KT 31/01 A2991 RMK A01 T03100007  RH  014%=      5-min Rain = 0
KPPS 202210Z 17008G13KT 31/01 A299 RMK A01 T03100008  RH  015%=      5-min Rain = 0
KPPS 202215Z 21009KT 31/00 A299 RMK A01 T03090001  RH  014%=      5-min Rain = 0
KPPS 202220Z 22008KT 31/M01 A299 RMK A01 T03071011  RH  013%=      5-min Rain = 0
KPPS 202225Z 20007G12KT 31/M00 A299 RMK A01 T03081001  RH  014%=      5-min Rain = 0
KPPS 202230Z 19009KT 31/02 A299 RMK A01 T03080023  RH  016%=      5-min Rain = 0
KPPS 202235Z 18008KT 31/03 A299 RMK A01 T03060025  RH  017%=      5-min Rain = 0
KPPS 202240Z 20010KT 31/01 A299 RMK A01 T03060013  RH  015%=      5-min Rain = 0
KPPS 202245Z 21008G13KT 31/01 A299 RMK A01 T03050013  RH  016%=      5-min Rain = 0
KPPS 202250Z 19007KT 30/01 A299 RMK A01 T03040010  RH  015%=      5-min Rain = 0
KPPS 202255Z 20008KT 31/01 A299 RMK A01 T03060011  RH  015%=      5-min Rain = 0
KPPS 202300Z 22008KT 30/01 A299 RMK A01 T03040013  RH  016%=      5-min Rain = 0
KPPS 202305Z 19006KT 30/01 A299 RMK A01 T03030014  RH  016%=      5-min Rain = 0
KPPS 202310Z 21008G13KT 30/01 A299 RMK A01 T03030011  RH  016%=      5-min Rain = 0
KPPS 202315Z 20007KT 30/01 A299 RMK A01 T03020009  RH  015%=      5-min Rain = 0
KPPS 202320Z 20007KT 30/01 A299 RMK A01 T03010009  RH  015%=      5-min Rain = 0
KPPS 202325Z 20007KT 30/01 A299 RMK A01 T03000008  RH  016%=      5-min Rain = 0
KPPS 202330Z 20007KT 30/01 A299 RMK A01 T02980005  RH  015%=      5-min Rain = 0
KPPS 202335Z 20007KT 30/01 A299 RMK A01 T02950005  RH  015%=      5-min Rain = 0
KPPS 202340Z 19007KT 29/00 A299 RMK A01 T02930003  RH  016%=      5-min Rain = 0
KPPS 202345Z 19007KT 29/00 A299 RMK A01 T02880004  RH  016%=      5-min Rain = 0
KPPS 202350Z 18006KT 28/00 A299 RMK A01 T02830003  RH  017%=      5-min Rain = 0
KPPS 202355Z 18007KT 28/00 A2991 RMK A01 T02770001  RH  017%=      5-min Rain = 0
KPPS 210000Z 18007KT 27/M00 A2991 RMK A01 T02721002  RH  017%=      5-min Rain = 0
KPPS 210005Z 18007KT 27/M00 A2991 RMK A01 T02651003  RH  017%=      5-min Rain = 0
KPPS 210010Z 17007KT 26/M00 A2991 RMK A01 T02591004  RH  018%=      5-min Rain = 0
KPPS 210015Z 17007KT 25/M01 A2991 RMK A01 T02541005  RH  018%=      5-min Rain = 0
KPPS 210020Z 17007KT 25/M01 A2991 RMK A01 T02501007  RH  019%=      5-min Rain = 0
KPPS 210025Z 17008KT 25/M01 A2991 RMK A01 T02451008  RH  019%=      5-min Rain = 0
KPPS 210030Z 17008KT 24/M01 A2991 RMK A01 T02421009  RH  019%=      5-min Rain = 0
KPPS 210035Z 17008KT 24/M01 A2991 RMK A01 T02411011  RH  019%=      5-min Rain = 0
KPPS 210040Z 16008KT 24/M01 A2991 RMK A01 T02371012  RH  019%=      5-min Rain = 0
KPPS 210045Z 16008KT 24/M01 A2991 RMK A01 T02351014  RH  019%=      5-min Rain = 0
KPPS 210050Z 16007KT 23/M02 A2992 RMK A01 T02331015  RH  019%=      5-min Rain = 0
KPPS 210055Z 16007KT 23/M02 A2992 RMK A01 T02301015  RH  020%=      5-min Rain = 0
KPPS 210100Z 16008KT 23/M02 A2992 RMK A01 T02291015  RH  020%=      5-min Rain = 0
KPPS 210105Z 17008KT 23/M02 A2992 RMK A01 T02281016  RH  020%=      5-min Rain = 0
KPPS 210110Z 17008KT 23/M02 A2992 RMK A01 T02271016  RH  020%=      5-min Rain = 0
KPPS 210115Z 16007KT 23/M02 A2992 RMK A01 T02251016  RH  020%=      5-min Rain = 0
KPPS 210120Z 16006KT 22/M02 A2992 RMK A01 T02191016  RH  021%=      5-min Rain = 0
KPPS 210125Z 16007KT 22/M02 A2992 RMK A01 T02181017  RH  021%=      5-min Rain = 0
KPPS 210130Z 16007KT 22/M02 A2993 RMK A01 T02171018  RH  021%=      5-min Rain = 0
KPPS 210135Z 16006KT 22/M02 A2993 RMK A01 T02151018  RH  021%=      5-min Rain = 0
KPPS 210140Z 16006KT 21/M02 A2993 RMK A01 T02141017  RH  021%=      5-min Rain = 0
KPPS 210145Z 15006KT 22/M02 A2993 RMK A01 T02151016  RH  021%=      5-min Rain = 0
KPPS 210150Z 15007KT 22/M02 A2993 RMK A01 T02151016  RH  022%=      5-min Rain = 0
KPPS 210155Z 16006KT 21/M02 A2993 RMK A01 T02131017  RH  022%=      5-min Rain = 0
KPPS 210200Z 16006KT 21/M02 A2993 RMK A01 T02071016  RH  022%=      5-min Rain = 0
KPPS 210205Z 16006KT 20/M02 A2994 RMK A01 T02041016  RH  023%=      5-min Rain = 0
KPPS 210210Z 16007KT 21/M02 A2994 RMK A01 T02051015  RH  023%=      5-min Rain = 0
KPPS 210215Z 16007KT 21/M02 A2994 RMK A01 T02051015  RH  023%=      5-min Rain = 0
KPPS 210220Z 16007KT 21/M02 A2994 RMK A01 T02081016  RH  022%=      5-min Rain = 0
KPPS 210225Z 16007KT 21/M02 A2994 RMK A01 T02091019  RH  022%=      5-min Rain = 0
KPPS 210230Z 17007KT 21/M02 A2994 RMK A01 T02081020  RH  022%=      5-min Rain = 0
KPPS 210235Z 16007KT 21/M02 A2994 RMK A01 T02051021  RH  022%=      5-min Rain = 0
KPPS 210240Z 15005KT 20/M02 A2994 RMK A01 T02021019  RH  023%=      5-min Rain = 0
KPPS 210245Z 14006KT 21/M02 A2994 RMK A01 T02051019  RH  022%=      5-min Rain = 0
KPPS 210250Z 13007KT 20/M02 A2995 RMK A01 T01951020  RH  023%=      5-min Rain = 0
KPPS 210255Z 14007KT 19/M02 A2995 RMK A01 T01851020  RH  025%=      5-min Rain = 0
KPPS 210300Z 14007KT 18/M02 A2995 RMK A01 T01811019  RH  026%=      5-min Rain = 0
KPPS 210305Z 14008KT 18/M02 A2995 RMK A01 T01811019  RH  026%=      5-min Rain = 0
KPPS 210310Z 13009KT 18/M02 A2995 RMK A01 T01771018  RH  027%=      5-min Rain = 0
KPPS 210315Z 13009KT 18/M02 A2995 RMK A01 T01781015  RH  027%=      5-min Rain = 0
KPPS 210320Z 13009KT 18/M01 A2996 RMK A01 T01781013  RH  028%=      5-min Rain = 0
KPPS 210325Z 14010KT 18/M01 A2996 RMK A01 T01801008  RH  028%=      5-min Rain = 0
KPPS 210330Z 14009KT 18/M00 A2996 RMK A01 T01791004  RH  029%=      5-min Rain = 0
KPPS 210335Z 14008KT 18/00 A2996 RMK A01 T01750001  RH  031%=      5-min Rain = 0
KPPS 210340Z 15009KT 18/02 A2996 RMK A01 T01780020  RH  035%=      5-min Rain = 0
KPPS 210345Z 15009KT 18/03 A2997 RMK A01 T01800034  RH  038%=      5-min Rain = 0
KPPS 210350Z 14009KT 18/04 A2997 RMK A01 T01790042  RH  041%=      5-min Rain = 0
KPPS 210355Z 15009KT 18/06 A2997 RMK A01 T01810056  RH  045%=      5-min Rain = 0
KPPS 210400Z 15009KT 18/07 A2997 RMK A01 T01840068  RH  048%=      5-min Rain = 0
KPPS 210405Z 14008KT 18/07 A2997 RMK A01 T01830072  RH  050%=      5-min Rain = 0
KPPS 210410Z 14008KT 18/07 A2997 RMK A01 T01810072  RH  050%=      5-min Rain = 0
KPPS 210415Z 13008KT 18/07 A2998 RMK A01 T01770070  RH  051%=      5-min Rain = 0
KPPS 210420Z 14008KT 18/07 A2998 RMK A01 T01750071  RH  052%=      5-min Rain = 0
KPPS 210425Z 14008KT 17/07 A2998 RMK A01 T01730073  RH  053%=      5-min Rain = 0
KPPS 210430Z 14008KT 17/08 A2998 RMK A01 T01720079  RH  056%=      5-min Rain = 0
KPPS 210435Z 14008KT 17/08 A2998 RMK A01 T01710081  RH  057%=      5-min Rain = 0
KPPS 210440Z 15008KT 17/08 A2998 RMK A01 T01700082  RH  058%=      5-min Rain = 0
KPPS 210445Z 14007KT 17/08 A2998 RMK A01 T01690082  RH  058%=      5-min Rain = 0
KPPS 210450Z 14007KT 17/08 A2998 RMK A01 T01650079  RH  059%=      5-min Rain = 0
KPPS 210455Z 15007KT 16/08 A2998 RMK A01 T01620079  RH  059%=      5-min Rain = 0

Page generated in 0.0615 seconds.